Hunters Point, Arizona
Current Conditions -  °F | °C
As of 9:53 AM on Friday 24 Oct 2014 (Local Time) from KRQE Reporting Station
Clear Clear  
Wind Chill: 53°   Ceiling: Unl
Heat Index: 53°   Visibility: 10mi
Dew Point: 31°   Wind: 0mph
Humidity: 43%   Direction: NA
Pressure: 30.43"   Gusts: NA
Location:  35.6556°N, 109.102°W
Report Text: KRQE 241553Z AUTO 00000KT 10SM CLR 12/M01 A3043 RMK AO2 SLP237 T01171006 TSNO
Loading
Personal Weather Stations






























Interactive Weather Map
Tropical Storm Tracking
New forecast layout! Learn more

10-Day Weather Forecast

Advertisements
Track Severe Weather on mobile